New Castle, Kentucky
Current Conditions -  °F | °C
As of 12:53 PM on Sunday 21 Dec 2014 (Local Time) from KFFT Reporting Station
Clear Clear  
Wind Chill: 31°   Ceiling: Unl
Heat Index: 37°   Visibility: 9mi
Dew Point: 28°   Wind: 8mph
Humidity: 70%   Direction: 100°E
Pressure: 30.22"   Gusts: NA
Location:  38.43°N, 85.17°W
Report Text: KFFT 211753Z AUTO 10007KT 9SM CLR 03/M02 A3022 RMK AO2 SLP240 I6000 T00281022 10033 21078 58026
Loading
Personal Weather Stations






























Interactive Weather Map New forecast layout! Learn more

10-Day Weather Forecast

Advertisements
Track Severe Weather on mobile